Terminal Aerodrome Forecast
Issued by NWS

Home | Current Version | Previous Version | Text Only | Print | Product List | Glossary On
Versions: 1 2 3 4 5 6 7 8 9 10 11 12 13 14 15 16 17 18 19 20 21 22
000
FTUS43 KICT 152116 AAA
TAFRSL
TAF AMD
KRSL 152116Z 1521/1618 14016G22KT P6SM SCT030
     FM160100 12014KT P6SM BKN035
     FM160500 12009KT P6SM OVC015=

USA.gov is the U.S. government's official web portal to all federal, state and local government web resources and services.